Airport Name : Lishe

Other Name : Ningbo

ICAO : ZSNB

IATA : NGB

FAA :

Latitude : 29.824944

Longitude : 121.465069

Country : China

Local Date and Time : 10/16/2018 4:59:00 AM

 

TAF (Terminal Aerodrome Forecast)

 

METAR (METeorological Aerodrome Report)

ZSNB 152000Z 34003MPS 310V010 5000 -RA BR FEW007 BKN020 15/15 Q1017 NOSIG

ZSNB 151900Z 35003MPS 320V020 8000 -RA FEW006 BKN020 16/15 Q1017 NOSIG

ZSNB 151800Z VRB01MPS 4500 -RA BR FEW006 BKN020 16/15 Q1017 NOSIG

ZSNB 151700Z 33002MPS 4500 -RA BR FEW007 BKN020 16/15 Q1017 NOSIG